Time;durP1;ratioP1;P1;durP2;ratioP2;P2;SDS_P1;SDS_P2;PMS_P1;PMS_P2;Temp;Humidity;BMP_temperature;BMP_pressure;BME280_temperature;BME280_humidity;BME280_pressure;Samples;Min_cycle;Max_cycle;Signal;HPM_P1;HPM_P2
2024/03/17 00:02:25;;;;;;;40.25;17.73;;;;;;;6.87;100.00;97795.38;4970672;28;20030;-76
2024/03/17 00:05:02;;;;;;;32.60;15.68;;;;;;;6.81;100.00;97792.09;4970588;28;20046;-76
2024/03/17 00:07:36;;;;;;;39.78;17.88;;;;;;;6.83;100.00;97788.44;4958617;28;20054;-75
2024/03/17 00:10:20;;;;;;;37.00;16.55;;;;;;;6.82;100.00;97789.41;4961045;28;20452;-75
2024/03/17 00:12:55;;;;;;;37.55;16.27;;;;;;;6.72;100.00;97781.88;4955426;28;20039;-75
2024/03/17 00:15:29;;;;;;;35.90;17.65;;;;;;;6.68;100.00;97790.88;4964533;28;20029;-75
2024/03/17 00:18:04;;;;;;;33.50;16.30;;;;;;;6.66;100.00;97790.09;4970621;28;20103;-74
2024/03/17 00:20:40;;;;;;;35.42;16.77;;;;;;;6.60;100.00;97783.25;4946577;28;20443;-76
2024/03/17 00:26:14;;;;;;;55.25;19.63;;;;;;;6.56;100.00;97786.97;4959992;28;20069;-76
2024/03/17 00:29:13;;;;;;;35.90;15.95;;;;;;;6.47;100.00;97792.66;4936350;29;20051;-75
2024/03/17 00:31:50;;;;;;;51.40;19.30;;;;;;;6.42;100.00;97794.66;4955575;28;20066;-74
2024/03/17 00:34:22;;;;;;;54.47;20.02;;;;;;;6.35;100.00;97787.88;4970423;28;20034;-74
2024/03/17 00:36:51;;;;;;;67.93;22.05;;;;;;;6.29;100.00;97785.47;4970695;28;20541;-75
2024/03/17 00:39:27;;;;;;;67.75;23.00;;;;;;;6.28;100.00;97792.56;4967086;28;20104;-76
2024/03/17 00:42:05;;;;;;;42.53;17.40;;;;;;;6.27;100.00;97790.84;4959380;28;20054;-76
2024/03/17 00:44:43;;;;;;;29.80;15.15;;;;;;;6.19;100.00;97800.03;4943114;29;20392;-75
2024/03/17 00:50:24;;;;;;;34.85;16.45;;;;;;;6.14;100.00;97791.41;4946741;28;20106;-76
2024/03/17 00:53:00;;;;;;;39.10;15.75;;;;;;;6.11;100.00;97789.75;4944823;28;20517;-76
2024/03/17 00:55:32;;;;;;;39.75;16.02;;;;;;;6.09;100.00;97796.88;4966180;28;20027;-76
2024/03/17 00:58:10;;;;;;;;;;;;;;;;;;;;;
2024/03/17 01:00:49;;;;;;;34.72;15.90;;;;;;;6.12;100.00;97795.94;4974892;28;20047;-75
2024/03/17 01:03:28;;;;;;;32.38;14.65;;;;;;;6.06;100.00;97798.81;4955602;28;20146;-76
2024/03/17 01:06:09;;;;;;;33.65;15.48;;;;;;;6.08;100.00;97802.28;4935382;29;20134;-75
2024/03/17 01:08:40;;;;;;;36.95;16.83;;;;;;;6.16;100.00;97802.81;4949741;28;20098;-75
2024/03/17 01:11:18;;;;;;;;;;;;;;;;;;;;;
2024/03/17 01:13:52;;;;;;;30.75;14.77;;;;;;;6.15;100.00;97798.47;4965803;28;20031;-75
2024/03/17 01:16:38;;;;;;;28.50;14.80;;;;;;;6.22;100.00;97807.88;4974015;28;20100;-75
2024/03/17 01:19:09;;;;;;;31.55;14.18;;;;;;;6.31;100.00;97802.19;4957644;28;20026;-75
2024/03/17 01:21:53;;;;;;;36.00;17.60;;;;;;;6.36;100.00;97798.44;4973760;28;20505;-75
2024/03/17 01:24:46;;;;;;;53.15;24.30;;;;;;;6.48;100.00;97802.38;4958700;28;20109;-75
2024/03/17 01:27:15;;;;;;;;;;;;;;;6.55;100.00;97795.88;4964472;28;20385;-74
2024/03/17 01:29:46;;;;;;;51.67;24.17;;;;;;;6.58;100.00;97795.75;4957402;28;19988;-74
2024/03/17 01:32:22;;;;;;;56.75;25.27;;;;;;;6.57;100.00;97795.81;4973353;28;20045;-75
2024/03/17 01:35:11;;;;;;;47.63;22.67;;;;;;;6.55;100.00;97793.22;4941050;28;20107;-75
2024/03/17 01:37:44;;;;;;;49.20;23.88;;;;;;;6.56;100.00;97792.28;4957806;28;20035;-74
2024/03/17 01:40:28;;;;;;;50.72;21.80;;;;;;;6.62;100.00;97791.16;4948665;28;20030;-75
2024/03/17 01:43:01;;;;;;;41.58;21.08;;;;;;;6.62;100.00;97791.16;4953976;28;20023;-75
2024/03/17 01:45:34;;;;;;;48.85;20.60;;;;;;;6.51;100.00;97788.97;4955110;28;20033;-75
2024/03/17 01:48:01;;;;;;;53.80;19.30;;;;;;;6.49;100.00;97796.16;4953658;28;20111;-75
2024/03/17 01:50:40;;;;;;;44.60;18.92;;;;;;;6.46;100.00;97798.94;4953791;28;20050;-75
2024/03/17 01:53:09;;;;;;;34.78;18.13;;;;;;;6.39;100.00;97790.34;4938031;28;20029;-74
2024/03/17 01:55:38;;;;;;;38.90;16.52;;;;;;;6.40;100.00;97789.41;4956555;28;20321;-75
2024/03/17 01:58:26;;;;;;;35.97;17.02;;;;;;;6.41;100.00;97796.44;4936261;28;20024;-75
2024/03/17 02:00:59;;;;;;;32.40;16.90;;;;;;;6.37;100.00;97791.31;4950878;28;20039;-76
2024/03/17 02:03:24;;;;;;;;;;;;;;;6.37;100.00;97801.94;4949889;28;20046;-76
2024/03/17 02:06:17;;;;;;;;;;;;;;;;;;;;;
2024/03/17 02:09:13;;;;;;;48.58;21.45;;;;;;;6.14;100.00;97800.25;4954341;28;20023;-76
2024/03/17 02:11:38;;;;;;;55.88;22.70;;;;;;;6.11;100.00;97805.69;4949329;28;20035;-75
2024/03/17 02:14:17;;;;;;;41.35;19.42;;;;;;;6.09;100.00;97791.56;4937304;28;20384;-75
2024/03/17 02:17:06;;;;;;;37.88;19.25;;;;;;;6.06;100.00;97796.16;4941500;28;20023;-76
2024/03/17 02:19:47;;;;;;;32.53;17.23;;;;;;;6.12;100.00;97801.25;4956175;28;20035;-76
2024/03/17 02:22:28;;;;;;;34.95;17.52;;;;;;;6.04;100.00;97798.88;4960836;28;20027;-75
2024/03/17 02:25:07;;;;;;;35.38;16.55;;;;;;;5.90;100.00;97794.13;4957160;28;20498;-76
2024/03/17 02:27:41;;;;;;;35.65;16.98;;;;;;;5.89;100.00;97808.31;4957314;28;20117;-76
2024/03/17 02:30:30;;;;;;;35.15;16.13;;;;;;;5.87;100.00;97796.03;4938253;28;20043;-76
2024/03/17 02:33:15;;;;;;;33.47;16.23;;;;;;;5.85;100.00;97798.72;4966184;28;20043;-75
2024/03/17 02:35:48;;;;;;;36.42;17.15;;;;;;;5.76;100.00;97780.47;4970775;28;20026;-76
2024/03/17 02:39:33;;;;;;;30.35;16.10;;;;;;;5.88;100.00;97792.44;4972223;28;20081;-76
2024/03/17 02:41:14;;;;;;;32.65;16.50;;;;;;;5.86;100.00;97796.94;4957373;28;20185;-76
2024/03/17 02:43:44;;;;;;;39.63;18.23;;;;;;;5.86;100.00;97796.94;4952760;28;20042;-75
2024/03/17 02:46:28;;;;;;;34.60;17.77;;;;;;;5.99;100.00;97796.41;4952596;28;20038;-76
2024/03/17 02:48:57;;;;;;;42.50;19.02;;;;;;;6.10;100.00;97803.06;4955779;28;20093;-75
2024/03/17 02:51:43;;;;;;;34.45;17.67;;;;;;;6.11;100.00;97788.88;4953278;28;20425;-75
2024/03/17 02:54:30;;;;;;;42.28;17.67;;;;;;;6.12;100.00;97788.78;4945742;28;20461;-75
2024/03/17 02:57:29;;;;;;;37.50;17.33;;;;;;;6.18;100.00;97801.00;4941921;29;20038;-74
2024/03/17 03:00:10;;;;;;;;;;;;;;;;;;;;;
2024/03/17 03:02:39;;;;;;;36.67;17.70;;;;;;;6.16;100.00;97802.81;4971908;28;20031;-74
2024/03/17 03:05:11;;;;;;;40.25;19.30;;;;;;;6.11;100.00;97797.72;4968098;28;20042;-76
2024/03/17 03:07:58;;;;;;;;;;;;;;;;;;;;;
2024/03/17 03:10:54;;;;;;;;;;;;;;;;;;;;;
2024/03/17 03:13:31;;;;;;;43.67;19.00;;;;;;;6.27;100.00;97795.31;4956857;28;20043;-76
2024/03/17 03:16:10;;;;;;;45.72;18.52;;;;;;;6.23;100.00;97793.69;4961798;28;20023;-75
2024/03/17 03:18:44;;;;;;;36.80;17.58;;;;;;;6.17;100.00;97801.91;4960229;28;20027;-75
2024/03/17 03:21:17;;;;;;;35.20;17.90;;;;;;;6.14;100.00;97807.34;4943955;28;20051;-75
2024/03/17 03:23:57;;;;;;;36.03;17.85;;;;;;;6.07;100.00;97793.44;4961469;28;20042;-75
2024/03/17 03:26:43;;;;;;;33.28;16.73;;;;;;;6.04;100.00;97800.66;4936535;28;20027;-75
2024/03/17 03:29:23;;;;;;;37.30;17.75;;;;;;;6.04;100.00;97798.00;4953482;28;20042;-75
2024/03/17 03:31:51;;;;;;;36.85;18.45;;;;;;;5.99;100.00;97800.84;4953080;28;20522;-75
2024/03/17 03:34:25;;;;;;;37.67;19.10;;;;;;;6.05;100.00;97797.09;4941101;28;20037;-76
2024/03/17 03:37:16;;;;;;;42.58;20.33;;;;;;;5.99;100.00;97804.38;4952000;28;20420;-76
2024/03/17 03:39:48;;;;;;;43.88;19.10;;;;;;;5.96;100.00;97796.53;4954397;28;20027;-75
2024/03/17 03:42:31;;;;;;;41.95;17.23;;;;;;;6.02;100.00;97805.19;4955875;28;20129;-75
2024/03/17 03:45:33;;;;;;;34.70;17.40;;;;;;;5.99;100.00;97812.34;4957230;28;20459;-75
2024/03/17 03:47:58;;;;;;;28.77;15.43;;;;;;;5.95;100.00;97802.75;4963133;28;20161;-75
2024/03/17 03:50:42;;;;;;;32.97;16.42;;;;;;;5.96;100.00;97804.50;4953474;28;20106;-76
2024/03/17 03:53:22;;;;;;;31.08;15.50;;;;;;;5.94;100.00;97802.81;4950925;28;20491;-75
2024/03/17 03:55:59;;;;;;;29.40;15.70;;;;;;;6.02;100.00;97816.66;4950386;28;20046;-75
2024/03/17 03:58:46;;;;;;;32.53;17.02;;;;;;;5.95;100.00;97818.69;4937622;28;20451;-73
2024/03/17 04:01:21;;;;;;;;;;;;;;;;;;;;;
2024/03/17 04:03:53;;;;;;;35.33;17.08;;;;;;;5.91;100.00;97814.41;4968228;28;20029;-75
2024/03/17 04:06:45;;;;;;;31.40;15.68;;;;;;;6.01;100.00;97814.94;4951237;28;20027;-76
2024/03/17 04:09:24;;;;;;;34.47;17.65;;;;;;;6.06;100.00;97823.56;4962344;28;20027;-75
2024/03/17 04:11:55;;;;;;;33.95;16.23;;;;;;;6.16;100.00;97824.06;4952516;28;20117;-75
2024/03/17 04:14:30;;;;;;;;;;;;;;;;;;;;;
2024/03/17 04:17:16;;;;;;;34.05;16.05;;;;;;;6.25;100.00;97823.69;4958415;28;20403;-75
2024/03/17 04:20:20;;;;;;;29.55;14.93;;;;;;;6.35;100.00;97835.69;4967444;28;20414;-76
2024/03/17 04:22:56;;;;;;;;;;;;;;;;;;;;;
2024/03/17 04:25:22;;;;;;;36.55;15.73;;;;;;;6.39;100.00;97831.97;4964174;28;20033;-75
2024/03/17 04:28:17;;;;;;;35.70;17.05;;;;;;;6.30;100.00;97837.69;4958931;28;20041;-75
2024/03/17 04:31:02;;;;;;;28.77;13.90;;;;;;;6.25;100.00;97836.97;4967779;28;20107;-76
2024/03/17 04:33:33;;;;;;;28.73;14.23;;;;;;;6.23;100.00;97837.06;4957561;28;20117;-75
2024/03/17 04:36:13;;;;;;;33.00;15.30;;;;;;;6.30;100.00;97845.63;4962384;28;20038;-75
2024/03/17 04:38:50;;;;;;;35.90;15.57;;;;;;;6.31;100.00;97844.69;4961513;28;20035;-73
2024/03/17 04:41:37;;;;;;;35.97;17.42;;;;;;;6.39;100.00;97850.59;4936987;28;20033;-75
2024/03/17 04:44:06;;;;;;;34.33;17.00;;;;;;;6.42;100.00;97850.47;4969228;28;20038;-75
2024/03/17 04:46:40;;;;;;;38.60;17.33;;;;;;;6.41;100.00;97846.94;4963080;28;20054;-75
2024/03/17 04:49:23;;;;;;;32.17;16.40;;;;;;;6.54;100.00;97849.94;4942027;28;20026;-76
2024/03/17 04:52:09;;;;;;;40.53;17.55;;;;;;;6.58;100.00;97856.88;4941195;28;20039;-75
2024/03/17 04:54:42;;;;;;;33.85;17.67;;;;;;;6.59;100.00;97850.63;4976977;28;20081;-74
2024/03/17 04:57:26;;;;;;;;;;;;;;;;;;;;;
2024/03/17 05:00:24;;;;;;;35.92;16.08;;;;;;;6.66;100.00;97862.72;4958301;28;20057;-75
2024/03/17 05:02:55;;;;;;;29.85;15.95;;;;;;;6.63;100.00;97862.88;4958692;28;20491;-75
2024/03/17 05:05:28;;;;;;;34.38;16.00;;;;;;;6.66;100.00;97862.72;4964787;28;20038;-75
2024/03/17 05:07:57;;;;;;;38.97;18.77;;;;;;;6.68;100.00;97870.63;4949071;28;20565;-76
2024/03/17 05:10:22;;;;;;;37.22;19.52;;;;;;;6.66;100.00;97870.72;4953327;28;20081;-76
2024/03/17 05:12:48;;;;;;;42.25;20.98;;;;;;;6.62;100.00;97873.53;4943933;29;20507;-75
2024/03/17 05:15:26;;;;;;;40.22;20.33;;;;;;;6.52;100.00;97867.75;4967570;28;20042;-74
2024/03/17 05:17:59;;;;;;;40.88;19.00;;;;;;;6.61;100.00;97875.34;4974451;28;20113;-75
2024/03/17 05:20:27;;;;;;;35.78;19.38;;;;;;;6.55;100.00;97870.28;4976650;28;20089;-75
2024/03/17 05:22:58;;;;;;;48.67;20.10;;;;;;;6.56;100.00;97887.94;4961432;28;20058;-75
2024/03/17 05:25:31;;;;;;;47.65;22.88;;;;;;;6.53;100.00;97880.09;4961170;28;20034;-75
2024/03/17 05:28:05;;;;;;;57.55;26.20;;;;;;;6.59;100.00;97893.13;4945268;28;20483;-77
2024/03/17 05:30:35;;;;;;;54.83;25.60;;;;;;;6.61;100.00;97887.78;4973036;28;20027;-75
2024/03/17 05:33:19;;;;;;;58.90;25.50;;;;;;;6.63;100.00;97876.16;4940268;28;20495;-76
2024/03/17 05:35:57;;;;;;;55.22;26.75;;;;;;;6.92;100.00;97878.44;4957063;28;20035;-74
2024/03/17 05:38:33;;;;;;;55.85;26.38;;;;;;;7.55;100.00;97881.91;4941829;28;20526;-76
2024/03/17 05:41:31;;;;;;;54.90;26.13;;;;;;;8.14;100.00;97872.06;4965013;28;20035;-77
2024/03/17 05:44:13;;;;;;;50.42;24.70;;;;;;;8.83;100.00;97871.44;4969606;28;20050;-75
2024/03/17 05:46:48;;;;;;;43.25;22.52;;;;;;;9.21;100.00;97857.88;4949292;28;20027;-76
2024/03/17 05:49:22;;;;;;;53.60;24.55;;;;;;;9.70;100.00;97845.47;4945889;28;20030;-76
2024/03/17 05:51:56;;;;;;;44.13;23.33;;;;;;;10.03;100.00;97845.44;4954190;28;20098;-76
2024/03/17 05:54:34;;;;;;;44.65;23.70;;;;;;;10.36;100.00;97849.91;4946027;28;20041;-75
2024/03/17 05:57:04;;;;;;;45.40;23.58;;;;;;;10.46;100.00;97845.78;4934179;29;20040;-76
2024/03/17 05:59:31;;;;;;;45.25;22.42;;;;;;;10.65;100.00;97841.94;4946390;28;20029;-77
2024/03/17 06:01:57;;;;;;;41.28;21.63;;;;;;;11.05;100.00;97835.13;4961661;28;20106;-78
2024/03/17 06:04:24;;;;;;;46.55;22.25;;;;;;;11.00;100.00;97829.19;4948096;28;20034;-75
2024/03/17 06:06:55;;;;;;;42.10;21.58;;;;;;;11.27;100.00;97830.22;4972946;28;20089;-77
2024/03/17 06:09:50;;;;;;;43.42;21.48;;;;;;;11.06;100.00;97835.97;4970608;28;20030;-78
2024/03/17 06:12:21;;;;;;;48.15;24.10;;;;;;;11.44;100.00;97831.88;4955391;28;20098;-78
2024/03/17 06:14:49;;;;;;;45.40;25.10;;;;;;;11.58;100.00;97839.94;4943709;29;20045;-74
2024/03/17 06:17:17;;;;;;;44.55;23.10;;;;;;;11.98;100.00;97841.03;4941428;28;20043;-77
2024/03/17 06:20:18;;;;;;;38.50;22.05;;;;;;;12.28;100.00;97841.75;4972741;28;20220;-77
2024/03/17 06:22:49;;;;;;;42.60;20.67;;;;;;;12.65;100.00;97829.50;4964345;28;20047;-77
2024/03/17 06:25:32;;;;;;;35.72;19.67;;;;;;;13.07;100.00;97828.50;4940374;28;20038;-76
2024/03/17 06:28:10;;;;;;;43.85;21.95;;;;;;;13.40;100.00;97828.91;4938723;29;20492;-75
2024/03/17 06:30:53;;;;;;;;;;;;;;;;;;;;;
2024/03/17 06:33:44;;;;;;;87.80;43.83;;;;;;;13.93;100.00;97824.31;4972319;28;20036;-74
2024/03/17 06:36:13;;;;;;;34.65;19.15;;;;;;;14.09;100.00;97839.22;4972487;28;20384;-74
2024/03/17 06:38:53;;;;;;;31.65;17.58;;;;;;;14.50;100.00;97832.72;4961397;28;20106;-75
2024/03/17 06:41:24;;;;;;;30.83;17.17;;;;;;;14.51;100.00;97835.31;4953300;28;20542;-75
2024/03/17 06:43:52;;;;;;;32.90;16.10;;;;;;;14.48;100.00;97818.53;4970954;28;20141;-75
2024/03/17 06:46:18;;;;;;;30.27;15.77;;;;;;;15.26;100.00;97821.63;4931655;28;20573;-73
2024/03/17 06:49:09;;;;;;;36.45;16.75;;;;;;;15.97;100.00;97821.41;4958803;28;20031;-74
2024/03/17 06:51:40;;;;;;;33.58;16.83;;;;;;;16.62;91.43;97817.00;4949993;28;20043;-75
2024/03/17 06:54:10;;;;;;;31.33;14.88;;;;;;;17.70;80.57;97800.63;4958283;28;20118;-74
2024/03/17 06:57:08;;;;;;;23.02;13.65;;;;;;;17.30;80.30;97805.84;4960796;28;21560;-74
2024/03/17 06:59:48;;;;;;;23.63;13.18;;;;;;;17.75;78.38;97813.72;4958228;28;20053;-75
2024/03/17 07:02:20;;;;;;;27.52;14.63;;;;;;;17.63;76.42;97803.97;4968602;28;20434;-74
2024/03/17 07:04:55;;;;;;;22.10;13.63;;;;;;;17.09;80.22;97804.97;4953346;28;20034;-74
2024/03/17 07:07:30;;;;;;;28.65;14.35;;;;;;;18.55;73.33;97797.63;4952811;28;20027;-74
2024/03/17 07:10:11;;;;;;;23.58;13.88;;;;;;;18.99;65.91;97794.41;4951167;28;20131;-75
2024/03/17 07:12:50;;;;;;;25.25;13.23;;;;;;;19.23;64.37;97788.56;4950814;28;20455;-75
2024/03/17 07:15:18;;;;;;;22.88;13.25;;;;;;;19.09;64.30;97803.44;4950824;28;20554;-73
2024/03/17 07:18:16;;;;;;;;;;;;;;;;;;;;;
2024/03/17 07:20:47;;;;;;;20.73;11.32;;;;;;;19.39;60.63;97795.19;4950606;28;20033;-73
2024/03/17 07:23:34;;;;;;;16.23;11.77;;;;;;;19.54;59.99;97801.03;4949561;28;20432;-74
2024/03/17 07:26:14;;;;;;;18.75;11.68;;;;;;;19.91;58.73;97799.25;4949524;28;20019;-75
2024/03/17 07:28:42;;;;;;;18.83;11.68;;;;;;;20.29;57.38;97795.59;4967141;28;20415;-74
2024/03/17 07:31:20;;;;;;;17.08;11.20;;;;;;;20.73;56.30;97799.38;4967647;28;20046;-74
2024/03/17 07:33:53;;;;;;;17.88;10.52;;;;;;;20.72;54.81;97791.38;4947272;28;20071;-73
2024/03/17 07:36:25;;;;;;;21.08;11.13;;;;;;;21.17;53.70;97785.94;4950481;28;20507;-74
2024/03/17 07:38:54;;;;;;;14.27;9.80;;;;;;;21.10;53.47;97793.03;4961027;28;20023;-74
2024/03/17 07:41:37;;;;;;;17.83;11.20;;;;;;;21.08;52.88;97793.13;4968462;28;20027;-74
2024/03/17 07:44:11;;;;;;;20.38;11.93;;;;;;;21.08;53.93;97794.00;4954862;28;20123;-74
2024/03/17 07:46:42;;;;;;;21.48;13.40;;;;;;;21.71;52.31;97790.34;4949049;28;20143;-76
2024/03/17 07:49:14;;;;;;;22.75;14.20;;;;;;;22.39;50.51;97792.19;4950488;28;20035;-75
2024/03/17 07:51:50;;;;;;;22.70;13.10;;;;;;;22.72;49.16;97787.75;4950007;28;20438;-75
2024/03/17 07:54:35;;;;;;;22.45;13.23;;;;;;;22.67;48.66;97790.97;4949106;28;20034;-75
2024/03/17 07:57:27;;;;;;;23.20;13.45;;;;;;;22.14;49.27;97788.47;4948967;28;20090;-76
2024/03/17 07:59:55;;;;;;;23.77;15.68;;;;;;;21.76;50.26;97787.97;4949821;28;20038;-74
2024/03/17 08:02:34;;;;;;;24.33;15.05;;;;;;;21.29;51.96;97788.25;4953164;28;20062;-75
2024/03/17 08:05:11;;;;;;;22.27;14.45;;;;;;;21.65;51.26;97789.09;4967959;28;20034;-73
2024/03/17 08:07:51;;;;;;;24.80;13.38;;;;;;;22.46;49.99;97787.78;4967926;28;20058;-74
2024/03/17 08:10:21;;;;;;;17.27;11.07;;;;;;;22.04;49.82;97773.25;4969305;28;20042;-74
2024/03/17 08:13:13;;;;;;;19.38;10.98;;;;;;;22.85;48.25;97776.38;4967618;28;20124;-74
2024/03/17 08:15:42;;;;;;;17.42;11.55;;;;;;;23.27;47.04;97759.91;4967778;28;20031;-75
2024/03/17 08:18:15;;;;;;;20.65;13.32;;;;;;;23.55;46.22;97761.34;4967826;28;20043;-75
2024/03/17 08:20:44;;;;;;;29.33;14.13;;;;;;;22.87;46.74;97753.38;4967692;28;20097;-75
2024/03/17 08:23:18;;;;;;;31.50;18.85;;;;;;;23.51;45.92;97746.31;4964003;28;20106;-74
2024/03/17 08:26:20;;;;;;;16.60;10.70;;;;;;;23.02;45.92;97740.78;4949599;28;20181;-74
2024/03/17 08:29:02;;;;;;;19.08;11.48;;;;;;;24.30;44.65;97743.66;4949000;28;20058;-74
2024/03/17 08:31:36;;;;;;;20.20;12.50;;;;;;;24.35;44.35;97734.91;4933411;28;20142;-74
2024/03/17 08:34:11;;;;;;;16.95;12.05;;;;;;;24.46;43.92;97726.31;4948520;28;20035;-74
2024/03/17 08:36:40;;;;;;;22.17;12.48;;;;;;;25.60;42.11;97721.88;4949724;28;20034;-75
2024/03/17 08:39:15;;;;;;;20.67;12.02;;;;;;;25.50;41.88;97722.13;4966658;28;20030;-74
2024/03/17 08:42:01;;;;;;;17.25;11.48;;;;;;;25.43;41.65;97720.28;4967110;28;20114;-74
2024/03/17 08:44:37;;;;;;;15.75;10.20;;;;;;;25.57;40.65;97716.75;4949515;28;20059;-74
2024/03/17 08:47:24;;;;;;;14.65;9.00;;;;;;;24.21;40.90;97709.16;4948431;28;20043;-75
2024/03/17 08:50:05;;;;;;;10.85;7.35;;;;;;;24.19;41.56;97705.75;4947744;28;20047;-75
2024/03/17 08:52:33;;;;;;;11.63;8.10;;;;;;;24.92;39.89;97698.06;4948378;28;20039;-75
2024/03/17 08:55:35;;;;;;;13.60;7.20;;;;;;;23.88;39.97;97700.16;4948127;28;20031;-74
2024/03/17 08:58:03;;;;;;;9.27;5.85;;;;;;;22.19;40.41;97697.19;4947934;28;20031;-74
2024/03/17 09:00:52;;;;;;;12.30;7.55;;;;;;;21.14;43.41;97705.47;4948200;28;20035;-74
2024/03/17 09:03:22;;;;;;;10.82;6.53;;;;;;;19.93;44.05;97704.91;4948495;28;20090;-74
2024/03/17 09:05:57;;;;;;;9.57;6.25;;;;;;;19.93;45.10;97709.50;4948334;28;20163;-73
2024/03/17 09:08:33;;;;;;;8.35;5.45;;;;;;;18.93;45.25;97705.50;4943346;28;20122;-73
2024/03/17 09:11:12;;;;;;;8.80;5.40;;;;;;;18.51;46.85;97699.50;4948035;28;20094;-75
2024/03/17 09:14:16;;;;;;;23.15;14.10;;;;;;;18.53;47.81;97705.63;4950613;28;20082;-73
2024/03/17 09:20:11;;;;;;;9.45;6.18;;;;;;;19.01;47.07;97699.41;4953387;28;20507;-75
2024/03/17 09:22:46;;;;;;;8.63;5.13;;;;;;;19.43;45.89;97692.66;4951863;28;20049;-74
2024/03/17 09:25:14;;;;;;;9.43;5.20;;;;;;;19.45;45.06;97698.78;4952694;28;20042;-74
2024/03/17 09:28:18;;;;;;;9.23;4.90;;;;;;;19.86;43.89;97687.50;4951516;28;20039;-74
2024/03/17 09:30:53;;;;;;;8.07;4.70;;;;;;;19.89;43.34;97683.63;4938006;28;20031;-74
2024/03/17 09:33:28;;;;;;;6.57;4.20;;;;;;;19.55;43.95;97686.03;4952451;28;20035;-74
2024/03/17 09:36:06;;;;;;;7.32;5.00;;;;;;;19.54;43.86;97680.75;4960912;28;20027;-74
2024/03/17 09:38:58;;;;;;;17.45;10.00;;;;;;;19.19;44.75;97681.38;4970531;28;20042;-73
2024/03/17 09:41:38;;;;;;;10.23;5.50;;;;;;;19.28;46.07;97681.38;4969112;28;21323;-74
2024/03/17 09:44:35;;;;;;;10.77;7.20;;;;;;;19.37;46.52;97693.19;4968524;28;20041;-74
2024/03/17 09:47:11;;;;;;;;;;;;;;;;;;;;;
2024/03/17 09:49:39;;;;;;;9.13;6.15;;;;;;;18.76;48.42;97698.97;4966246;28;20051;-74
2024/03/17 09:52:09;;;;;;;8.75;5.57;;;;;;;18.70;47.53;97694.09;4970099;28;20054;-74
2024/03/17 09:54:37;;;;;;;9.35;5.55;;;;;;;18.19;47.44;97682.56;4970221;28;20094;-72
2024/03/17 09:57:20;;;;;;;8.95;5.28;;;;;;;18.40;47.46;97696.88;4971435;28;20479;-73
2024/03/17 10:00:02;;;;;;;8.88;5.45;;;;;;;18.26;47.26;97690.03;4970322;28;20177;-74
2024/03/17 10:02:54;;;;;;;8.80;5.45;;;;;;;18.74;46.89;97687.41;4953386;28;20516;-74
2024/03/17 10:05:30;;;;;;;12.60;6.78;;;;;;;18.80;46.53;97684.13;4971691;28;20040;-74
2024/03/17 10:08:01;;;;;;;11.70;5.90;;;;;;;18.15;47.73;97683.88;4970146;28;20018;-74
2024/03/17 10:10:31;;;;;;;8.90;5.93;;;;;;;18.16;47.60;97699.09;4970904;28;20142;-74
2024/03/17 10:13:00;;;;;;;9.60;5.53;;;;;;;18.22;47.36;97690.41;4969826;28;20035;-73
2024/03/17 10:15:30;;;;;;;9.05;6.20;;;;;;;18.42;48.40;97700.31;4969524;28;20138;-75
2024/03/17 10:18:52;;;;;;;9.15;6.18;;;;;;;18.49;47.91;97706.91;4971165;28;20030;-75
2024/03/17 10:21:50;;;;;;;;;;;;;;;;;;;;;
2024/03/17 10:24:24;;;;;;;7.75;5.00;;;;;;;18.15;47.75;97694.69;4950890;28;20035;-74
2024/03/17 10:26:54;;;;;;;9.80;5.47;;;;;;;18.11;48.23;97693.25;4933753;28;20049;-75
2024/03/17 10:29:26;;;;;;;9.57;5.68;;;;;;;18.61;48.96;97696.81;4950112;28;20045;-73
2024/03/17 10:31:56;;;;;;;7.85;5.35;;;;;;;18.71;48.12;97701.22;4950429;28;20031;-73
2024/03/17 10:34:26;;;;;;;9.38;5.90;;;;;;;19.02;46.87;97691.09;4950243;28;20030;-74
2024/03/17 10:37:06;;;;;;;;;;;;;;;;;;;;;
2024/03/17 10:39:45;;;;;;;8.38;5.25;;;;;;;19.98;44.68;97682.75;4950585;28;20037;-74
2024/03/17 10:42:33;;;;;;;7.93;4.93;;;;;;;19.78;44.38;97687.38;4953074;28;20399;-74
2024/03/17 10:44:59;;;;;;;8.95;6.07;;;;;;;19.41;45.08;97678.38;4953093;28;20071;-73
2024/03/17 10:47:40;;;;;;;9.48;6.03;;;;;;;19.33;45.48;97680.91;4951857;28;20083;-75
2024/03/17 10:50:26;;;;;;;14.88;9.20;;;;;;;19.26;45.59;97674.34;4951927;28;20027;-73
2024/03/17 10:53:03;;;;;;;42.53;26.80;;;;;;;19.48;45.45;97664.06;4952493;28;20043;-73
2024/03/17 10:55:57;;;;;;;;;;;;;;;;;;;;;
2024/03/17 10:58:40;;;;;;;10.82;5.80;;;;;;;18.81;44.89;97669.56;4952995;28;20081;-75
2024/03/17 11:01:14;;;;;;;9.35;6.50;;;;;;;18.53;45.92;97667.69;4936506;29;20085;-73
2024/03/17 11:03:45;;;;;;;12.70;6.63;;;;;;;18.39;45.49;97668.91;4952054;28;20050;-74
2024/03/17 11:06:10;;;;;;;13.27;8.40;;;;;;;18.35;45.96;97666.66;4953701;28;20106;-73
2024/03/17 11:08:39;;;;;;;9.55;5.80;;;;;;;18.47;46.48;97665.53;4952179;28;20419;-74
2024/03/17 11:11:08;;;;;;;7.20;4.30;;;;;;;18.41;46.35;97660.66;4952306;28;20027;-74
2024/03/17 11:13:56;;;;;;;6.70;4.57;;;;;;;18.61;46.40;97664.28;4951901;28;20385;-74
2024/03/17 11:16:36;;;;;;;;;;;;;;;;;;;;;
2024/03/17 11:19:20;;;;;;;9.52;5.07;;;;;;;18.78;45.84;97652.72;4952317;28;20030;-75
2024/03/17 11:25:36;;;;;;;9.55;5.28;;;;;;;18.77;46.58;97660.00;4952589;28;20047;-74
2024/03/17 11:28:12;;;;;;;13.50;4.95;;;;;;;18.78;46.34;97653.59;4935435;28;20577;-74
2024/03/17 11:36:45;;;;;;;10.52;6.88;;;;;;;18.83;46.50;97642.31;4936485;28;20055;-74
2024/03/17 11:39:31;;;;;;;10.73;5.47;;;;;;;18.57;46.01;97643.91;4953100;28;20027;-75
2024/03/17 11:42:14;;;;;;;7.53;5.38;;;;;;;18.53;47.03;97637.91;4951544;28;20055;-75
2024/03/17 11:44:49;;;;;;;14.50;7.13;;;;;;;18.86;46.16;97637.47;4951678;28;20031;-75
2024/03/17 11:47:51;;;;;;;;;;;;;;;;;;;;;
2024/03/17 11:50:22;;;;;;;6.43;4.50;;;;;;;19.23;44.14;97623.97;4951991;28;20037;-74
2024/03/17 11:53:06;;;;;;;10.02;4.55;;;;;;;19.84;43.58;97618.91;4951898;28;20089;-74
2024/03/17 11:55:39;;;;;;;6.80;4.65;;;;;;;19.70;43.93;97624.84;4953060;28;20130;-74
2024/03/17 11:58:33;;;;;;;7.22;4.82;;;;;;;19.48;44.78;97627.94;4951252;28;20037;-75
2024/03/17 12:01:08;;;;;;;;;;;;;;;;;;;;;
2024/03/17 12:03:42;;;;;;;9.02;5.30;;;;;;;19.66;44.47;97615.28;4951605;28;20027;-75
2024/03/17 12:06:46;;;;;;;;;;;;;;;;;;;;;
2024/03/17 12:09:31;;;;;;;11.63;6.07;;;;;;;19.59;44.46;97622.34;4969877;28;20035;-74
2024/03/17 12:12:16;;;;;;;9.73;6.10;;;;;;;19.59;44.18;97619.63;4971495;28;20030;-74
2024/03/17 12:14:50;;;;;;;7.18;4.95;;;;;;;19.20;44.97;97616.13;4954545;28;20030;-74
2024/03/17 12:17:26;;;;;;;7.10;4.57;;;;;;;18.73;45.06;97617.94;4971602;28;20042;-74
2024/03/17 12:20:00;;;;;;;8.85;5.43;;;;;;;18.06;47.00;97627.81;4970650;28;20039;-74
2024/03/17 12:22:41;;;;;;;8.93;4.88;;;;;;;18.42;45.96;97627.19;4970715;28;20193;-74
2024/03/17 12:25:26;;;;;;;6.15;4.50;;;;;;;19.04;44.66;97615.88;4970662;28;20042;-75
2024/03/17 12:28:08;;;;;;;9.70;5.38;;;;;;;19.79;43.18;97604.09;4952230;28;20035;-75
2024/03/17 12:30:39;;;;;;;;;;;;;;;19.81;41.76;97605.63;4951559;28;20027;-74
2024/03/17 12:33:44;;;;;;;7.20;4.35;;;;;;;19.64;42.28;97603.75;4950783;28;19915;-75
2024/03/17 12:36:12;;;;;;;11.25;6.85;;;;;;;19.50;41.95;97598.81;4967917;28;20054;-74
2024/03/17 12:38:43;;;;;;;8.13;4.90;;;;;;;19.15;43.08;97599.47;4971477;28;20035;-75
2024/03/17 12:41:21;;;;;;;7.72;5.20;;;;;;;19.13;43.96;97604.19;4970070;28;20479;-74
2024/03/17 12:43:52;;;;;;;7.82;4.68;;;;;;;19.13;44.02;97600.63;4971412;28;20061;-73
2024/03/17 12:46:38;;;;;;;9.98;5.53;;;;;;;18.80;45.27;97608.22;4971414;28;20063;-74
2024/03/17 12:49:19;;;;;;;;;;;;;;;;;;;;;
2024/03/17 12:51:48;;;;;;;13.25;6.80;;;;;;;18.34;44.60;97602.63;4965208;28;20041;-73
2024/03/17 12:54:30;;;;;;;15.88;8.18;;;;;;;18.35;44.71;97601.66;4939207;28;20463;-73
2024/03/17 13:02:48;;;;;;;16.38;7.70;;;;;;;18.39;45.21;97593.06;4975218;28;20112;-73
2024/03/17 13:05:21;;;;;;;18.48;9.07;;;;;;;18.30;45.70;97598.53;4958874;28;20023;-72
2024/03/17 13:07:57;;;;;;;13.60;7.68;;;;;;;18.18;45.73;97599.66;4972969;28;20039;-72